Time;durP1;ratioP1;P1;durP2;ratioP2;P2;SDS_P1;SDS_P2;PMS_P1;PMS_P2;Temp;Humidity;BMP_temperature;BMP_pressure;BME280_temperature;BME280_humidity;BME280_pressure;Samples;Min_cycle;Max_cycle;Signal;HPM_P1;HPM_P2
2020/12/03 00:00:46;;;;;;;46.20;22.10;;;2.20;99.90;;;;;;5025944;28;21024;-66
2020/12/03 00:03:26;;;;;;;30.20;20.00;;;2.10;99.90;;;;;;5020305;28;20460;-66
2020/12/03 00:06:18;;;;;;;40.47;21.83;;;2.10;99.90;;;;;;5026585;28;20799;-66
2020/12/03 00:08:51;;;;;;;38.33;21.87;;;2.10;99.90;;;;;;5024349;28;20829;-66
2020/12/03 00:11:17;;;;;;;38.33;21.93;;;2.10;99.90;;;;;;5030444;28;20456;-66
2020/12/03 00:13:43;;;;;;;37.83;22.40;;;2.10;99.90;;;;;;5022576;28;20433;-66
2020/12/03 00:16:09;;;;;;;36.00;22.40;;;2.20;99.90;;;;;;5021811;28;21002;-66
2020/12/03 00:18:36;;;;;;;36.63;21.67;;;2.10;99.90;;;;;;5022096;28;20210;-67
2020/12/03 00:21:04;;;;;;;38.13;23.50;;;2.00;99.90;;;;;;5028631;28;20197;-68
2020/12/03 00:23:29;;;;;;;41.47;25.13;;;2.00;99.90;;;;;;5021176;28;20457;-67
2020/12/03 00:25:56;;;;;;;38.63;22.60;;;1.90;99.90;;;;;;5019642;28;20445;-67
2020/12/03 00:28:30;;;;;;;37.40;21.37;;;2.00;99.90;;;;;;5029383;28;20266;-66
2020/12/03 00:30:56;;;;;;;41.60;21.43;;;1.90;99.90;;;;;;5017235;28;20455;-67
2020/12/03 00:33:22;;;;;;;39.47;22.70;;;2.00;99.90;;;;;;5022056;28;20433;-67
2020/12/03 00:35:49;;;;;;;40.83;22.27;;;2.10;99.90;;;;;;5016891;28;20189;-66
2020/12/03 00:38:17;;;;;;;38.50;21.90;;;2.20;99.90;;;;;;5024143;28;20530;-67
2020/12/03 00:40:42;;;;;;;37.27;23.00;;;2.10;99.90;;;;;;5016848;28;20522;-66
2020/12/03 00:43:08;;;;;;;40.83;22.77;;;2.10;99.90;;;;;;5028626;28;20887;-67
2020/12/03 00:45:34;;;;;;;35.47;21.80;;;2.00;99.90;;;;;;5030041;28;20177;-66
2020/12/03 00:47:59;;;;;;;46.90;21.97;;;2.00;99.90;;;;;;5024669;28;20261;-66
2020/12/03 00:50:25;;;;;;;35.23;21.47;;;2.00;99.90;;;;;;5021287;28;20668;-66
2020/12/03 00:52:50;;;;;;;45.40;23.13;;;2.00;99.90;;;;;;5029258;28;20173;-67
2020/12/03 00:55:16;;;;;;;36.53;20.50;;;2.00;99.90;;;;;;5016974;28;20639;-67
2020/12/03 00:57:41;;;;;;;35.67;25.40;;;2.10;99.90;;;;;;5032708;28;20208;-67
2020/12/03 01:00:11;;;;;;;35.80;21.47;;;2.10;99.90;;;;;;5033569;28;20178;-65
2020/12/03 01:02:36;;;;;;;34.73;21.50;;;2.10;99.90;;;;;;5021499;28;20213;-66
2020/12/03 01:05:04;;;;;;;34.83;19.60;;;2.10;99.90;;;;;;5031674;28;20524;-66
2020/12/03 01:07:29;;;;;;;34.80;20.37;;;2.20;99.90;;;;;;5031162;28;20178;-67
2020/12/03 01:09:55;;;;;;;35.63;22.60;;;2.20;99.90;;;;;;5031553;28;20486;-67
2020/12/03 01:12:20;;;;;;;36.53;21.67;;;2.10;99.90;;;;;;5031532;28;20243;-67
2020/12/03 01:14:46;;;;;;;43.10;22.07;;;2.10;99.90;;;;;;5031593;28;20652;-67
2020/12/03 01:17:15;;;;;;;36.57;20.73;;;2.10;99.90;;;;;;5031799;28;20182;-66
2020/12/03 01:19:40;;;;;;;38.20;23.07;;;2.00;99.90;;;;;;5026454;28;20218;-66
2020/12/03 01:22:07;;;;;;;34.80;21.17;;;2.00;99.90;;;;;;5022571;28;20560;-66
2020/12/03 01:24:33;;;;;;;41.37;22.07;;;2.00;99.90;;;;;;5031374;28;20577;-66
2020/12/03 01:26:59;;;;;;;38.83;21.70;;;2.00;99.90;;;;;;5031886;28;20429;-66
2020/12/03 01:29:25;;;;;;;34.43;19.20;;;2.00;99.90;;;;;;5021581;28;20434;-67
2020/12/03 01:31:51;;;;;;;34.13;21.57;;;2.00;99.90;;;;;;5031165;28;20767;-67
2020/12/03 01:34:17;;;;;;;32.60;21.03;;;2.00;99.90;;;;;;5031702;28;20421;-67
2020/12/03 01:36:43;;;;;;;39.10;21.77;;;2.00;99.90;;;;;;5026751;28;21198;-67
2020/12/03 01:39:09;;;;;;;42.10;22.50;;;2.10;99.90;;;;;;5032030;28;20440;-66
2020/12/03 01:41:35;;;;;;;41.37;22.87;;;2.10;99.90;;;;;;5025422;28;20212;-67
2020/12/03 01:44:01;;;;;;;35.57;22.07;;;2.10;99.90;;;;;;5026605;28;20499;-67
2020/12/03 01:46:27;;;;;;;37.20;21.57;;;2.10;99.90;;;;;;5024551;28;21036;-67
2020/12/03 01:49:02;;;;;;;37.33;22.90;;;2.00;99.90;;;;;;5020287;28;20516;-67
2020/12/03 01:51:34;;;;;;;40.53;22.63;;;1.90;99.90;;;;;;5022244;28;20193;-67
2020/12/03 01:54:07;;;;;;;36.60;20.90;;;1.90;99.90;;;;;;5021430;28;20445;-67
2020/12/03 01:56:54;;;;;;;30.47;20.00;;;2.00;99.90;;;;;;5023808;28;20434;-67
2020/12/03 01:59:21;;;;;;;43.73;22.73;;;1.80;99.90;;;;;;5021525;28;20443;-67
2020/12/03 02:01:48;;;;;;;42.63;21.87;;;1.90;99.90;;;;;;5024752;28;20449;-67
2020/12/03 02:04:13;;;;;;;43.07;23.17;;;1.80;99.90;;;;;;5027256;28;20429;-67
2020/12/03 02:06:41;;;;;;;38.03;20.77;;;1.90;99.90;;;;;;5022658;28;20443;-67
2020/12/03 02:09:09;;;;;;;46.43;21.80;;;1.90;99.90;;;;;;5028377;28;20178;-67
2020/12/03 02:11:35;;;;;;;39.90;22.43;;;2.00;99.90;;;;;;5024159;28;20459;-67
2020/12/03 02:14:09;;;;;;;46.67;25.23;;;2.00;99.90;;;;;;5024962;28;20528;-67
2020/12/03 02:16:38;;;;;;;38.77;23.37;;;2.10;99.90;;;;;;5021309;28;20938;-67
2020/12/03 02:19:18;;;;;;;41.37;22.53;;;2.10;99.90;;;;;;5031731;28;20429;-67
2020/12/03 02:21:45;;;;;;;46.57;22.70;;;1.90;99.90;;;;;;5031047;28;20488;-67
2020/12/03 02:24:11;;;;;;;39.17;22.33;;;1.90;99.90;;;;;;5027647;28;20495;-66
2020/12/03 02:26:37;;;;;;;40.13;21.73;;;1.90;99.90;;;;;;5032116;28;20429;-66
2020/12/03 02:29:03;;;;;;;40.20;21.27;;;1.90;99.90;;;;;;5014248;28;20566;-66
2020/12/03 02:31:29;;;;;;;41.10;23.47;;;2.00;99.90;;;;;;5022049;28;20457;-66
2020/12/03 02:33:54;;;;;;;42.67;23.50;;;2.00;99.90;;;;;;5024365;28;20438;-66
2020/12/03 02:36:20;;;;;;;39.90;24.70;;;1.90;99.90;;;;;;5018677;28;20188;-67
2020/12/03 02:38:45;;;;;;;44.30;24.17;;;1.90;99.90;;;;;;5030406;28;20345;-66
2020/12/03 02:41:11;;;;;;;38.97;23.20;;;1.80;99.90;;;;;;5026043;28;20268;-66
2020/12/03 02:43:37;;;;;;;51.90;26.03;;;1.60;99.90;;;;;;5027680;28;20347;-66
2020/12/03 02:46:02;;;;;;;46.03;25.73;;;1.50;99.90;;;;;;5029500;28;20270;-66
2020/12/03 02:48:28;;;;;;;44.43;24.50;;;1.40;99.90;;;;;;5029036;28;20175;-66
2020/12/03 02:50:53;;;;;;;51.07;26.10;;;1.40;99.90;;;;;;5026341;28;20196;-66
2020/12/03 02:53:19;;;;;;;49.23;25.70;;;1.30;99.90;;;;;;5020905;28;20182;-67
2020/12/03 02:55:44;;;;;;;46.53;24.60;;;1.30;99.90;;;;;;5031454;28;20186;-66
2020/12/03 02:58:10;;;;;;;47.60;26.00;;;1.20;99.90;;;;;;5019488;28;20166;-66
2020/12/03 03:00:35;;;;;;;50.50;27.30;;;1.10;99.90;;;;;;5029168;28;20543;-66
2020/12/03 03:03:01;;;;;;;52.10;29.10;;;1.00;99.90;;;;;;5024884;28;20211;-66
2020/12/03 03:05:27;;;;;;;45.47;26.67;;;1.00;99.90;;;;;;5030799;28;20174;-66
2020/12/03 03:07:52;;;;;;;50.87;26.73;;;1.00;99.90;;;;;;5028004;28;20209;-66
2020/12/03 03:10:21;;;;;;;46.40;25.93;;;1.00;99.90;;;;;;5029747;28;20257;-66
2020/12/03 03:12:48;;;;;;;46.70;27.00;;;1.00;99.90;;;;;;5022965;28;20269;-66
2020/12/03 03:15:15;;;;;;;50.20;27.87;;;1.00;99.90;;;;;;5023827;28;20806;-66
2020/12/03 03:17:41;;;;;;;52.40;28.70;;;1.10;99.90;;;;;;5030158;28;20445;-66
2020/12/03 03:20:06;;;;;;;60.20;30.50;;;1.10;99.90;;;;;;5026277;28;20440;-66
2020/12/03 03:22:32;;;;;;;57.33;28.30;;;1.00;99.90;;;;;;5028060;28;20840;-66
2020/12/03 03:24:57;;;;;;;52.43;29.13;;;0.90;99.90;;;;;;5029553;28;20174;-66
2020/12/03 03:27:23;;;;;;;61.90;29.23;;;1.00;99.90;;;;;;5024466;28;20201;-66
2020/12/03 03:29:48;;;;;;;57.43;27.13;;;1.00;99.90;;;;;;5023333;28;20186;-66
2020/12/03 03:32:14;;;;;;;60.67;27.97;;;1.00;99.90;;;;;;5029431;28;20255;-66
2020/12/03 03:34:39;;;;;;;48.13;26.60;;;0.90;99.90;;;;;;5027607;28;20235;-66
2020/12/03 03:37:05;;;;;;;56.50;29.20;;;0.90;99.90;;;;;;5030482;28;20174;-66
2020/12/03 03:39:31;;;;;;;45.13;28.97;;;0.90;99.90;;;;;;5029329;28;20178;-66
2020/12/03 03:41:56;;;;;;;59.40;29.03;;;0.90;99.90;;;;;;5024457;28;20202;-66
2020/12/03 03:44:22;;;;;;;48.40;27.70;;;0.90;99.90;;;;;;5027589;28;20185;-66
2020/12/03 03:46:48;;;;;;;58.87;29.10;;;0.80;99.90;;;;;;5029516;28;20265;-66
2020/12/03 03:49:14;;;;;;;56.60;27.53;;;0.90;99.90;;;;;;5021652;28;20434;-66
2020/12/03 03:51:40;;;;;;;53.30;30.10;;;0.90;99.90;;;;;;5025697;28;20293;-66
2020/12/03 03:54:06;;;;;;;54.97;28.67;;;0.90;99.90;;;;;;5025224;28;20523;-66
2020/12/03 03:56:32;;;;;;;42.33;27.20;;;0.90;99.90;;;;;;5028562;28;20173;-66
2020/12/03 03:58:57;;;;;;;46.00;27.10;;;0.90;99.90;;;;;;5018810;28;20436;-66
2020/12/03 04:01:23;;;;;;;53.40;28.50;;;1.00;99.90;;;;;;5029787;28;20841;-66
2020/12/03 04:03:49;;;;;;;50.17;27.60;;;1.00;99.90;;;;;;5025277;28;20281;-66
2020/12/03 04:06:14;;;;;;;51.83;29.50;;;1.00;99.90;;;;;;5029355;28;20174;-66
2020/12/03 04:08:40;;;;;;;58.37;29.00;;;1.00;99.90;;;;;;5030090;28;20205;-66
2020/12/03 04:11:06;;;;;;;49.20;29.07;;;1.00;99.90;;;;;;5028809;28;20198;-66
2020/12/03 04:13:31;;;;;;;51.23;25.30;;;1.00;99.90;;;;;;5029776;28;20814;-66
2020/12/03 04:15:57;;;;;;;44.10;29.93;;;1.00;99.90;;;;;;5027178;28;20716;-66
2020/12/03 04:18:26;;;;;;;43.53;26.40;;;1.00;99.90;;;;;;5027939;28;20575;-66
2020/12/03 04:20:57;;;;;;;45.87;25.13;;;1.00;99.90;;;;;;5027213;28;20226;-66
2020/12/03 04:23:23;;;;;;;49.50;26.43;;;1.00;99.90;;;;;;5027991;28;20810;-66
2020/12/03 04:25:49;;;;;;;43.77;25.93;;;1.00;99.90;;;;;;5017458;28;20430;-67
2020/12/03 04:28:15;;;;;;;45.30;26.03;;;1.10;99.90;;;;;;5028252;28;20178;-66
2020/12/03 04:30:40;;;;;;;50.20;27.00;;;1.10;99.90;;;;;;5028091;28;20460;-67
2020/12/03 04:33:06;;;;;;;50.37;25.10;;;1.20;99.90;;;;;;5027000;28;20434;-66
2020/12/03 04:35:31;;;;;;;41.13;25.97;;;1.20;99.90;;;;;;5028622;28;20261;-66
2020/12/03 04:37:57;;;;;;;43.40;25.27;;;1.30;99.90;;;;;;5032952;28;20201;-66
2020/12/03 04:40:30;;;;;;;46.57;25.10;;;1.40;99.90;;;;;;5020798;28;20236;-66
2020/12/03 04:43:00;;;;;;;39.53;24.53;;;1.50;99.90;;;;;;5031510;28;20205;-66
2020/12/03 04:45:29;;;;;;;40.97;25.63;;;1.50;99.90;;;;;;5030421;28;20428;-66
2020/12/03 04:48:13;;;;;;;37.93;23.10;;;1.50;99.90;;;;;;5030140;28;20460;-66
2020/12/03 04:51:03;;;;;;;42.47;23.47;;;1.50;99.90;;;;;;5028561;28;20448;-66
2020/12/03 04:53:51;;;;;;;38.77;22.33;;;1.50;99.90;;;;;;5023355;28;20520;-66
2020/12/03 04:56:29;;;;;;;34.73;21.67;;;1.50;99.90;;;;;;5021429;28;21136;-66
2020/12/03 04:58:58;;;;;;;40.93;23.37;;;1.50;99.90;;;;;;5032718;28;20511;-66
2020/12/03 05:01:29;;;;;;;34.53;23.53;;;1.50;99.90;;;;;;5031689;28;20980;-66
2020/12/03 05:04:03;;;;;;;34.80;22.00;;;1.50;99.90;;;;;;5033223;28;20470;-66
2020/12/03 05:06:41;;;;;;;35.80;22.20;;;1.60;99.90;;;;;;5032921;28;20437;-66
2020/12/03 05:09:15;;;;;;;30.63;21.27;;;1.60;99.90;;;;;;5028996;28;20987;-66
2020/12/03 05:11:50;;;;;;;37.97;21.27;;;1.60;99.90;;;;;;5022179;28;20973;-66
2020/12/03 05:14:36;;;;;;;38.90;21.53;;;1.60;99.90;;;;;;5028895;28;20515;-67
2020/12/03 05:17:29;;;;;;;33.17;20.30;;;1.60;99.90;;;;;;5021871;28;20516;-66
2020/12/03 05:20:19;;;;;;;34.17;21.20;;;1.60;99.90;;;;;;5016427;28;20446;-66
2020/12/03 05:22:55;;;;;;;30.57;19.73;;;1.60;99.90;;;;;;5028983;28;20460;-66
2020/12/03 05:25:23;;;;;;;33.73;19.10;;;1.60;99.90;;;;;;5020414;28;20942;-66
2020/12/03 05:27:52;;;;;;;30.00;21.67;;;1.60;99.90;;;;;;5030757;28;20431;-66
2020/12/03 05:30:17;;;;;;;27.53;18.10;;;1.70;99.90;;;;;;5030596;28;20445;-66
2020/12/03 05:32:45;;;;;;;31.73;20.10;;;1.70;99.90;;;;;;5029778;28;20441;-66
2020/12/03 05:35:10;;;;;;;35.23;19.53;;;1.70;99.90;;;;;;5022336;28;20178;-66
2020/12/03 05:37:38;;;;;;;28.23;18.00;;;1.70;99.90;;;;;;5030022;28;20524;-66
2020/12/03 05:40:05;;;;;;;29.10;18.97;;;1.60;99.90;;;;;;5031186;28;20259;-66
2020/12/03 05:42:37;;;;;;;27.13;18.47;;;1.70;99.90;;;;;;5026547;28;20464;-66
2020/12/03 05:45:26;;;;;;;26.93;16.90;;;1.70;99.90;;;;;;5030647;28;20437;-66
2020/12/03 05:47:52;;;;;;;21.60;14.80;;;1.70;99.90;;;;;;5031744;28;20433;-66
2020/12/03 05:50:36;;;;;;;21.80;15.13;;;1.80;99.90;;;;;;5029962;28;20440;-66
2020/12/03 05:53:20;;;;;;;26.13;17.43;;;1.70;99.90;;;;;;5030347;28;20327;-66
2020/12/03 05:55:47;;;;;;;21.63;16.10;;;1.70;99.90;;;;;;5025866;28;20870;-66
2020/12/03 05:58:30;;;;;;;20.33;15.80;;;1.80;99.90;;;;;;5031098;28;20462;-66
2020/12/03 06:01:14;;;;;;;22.23;16.47;;;1.80;99.90;;;;;;5018655;28;21007;-66
2020/12/03 06:03:48;;;;;;;26.63;17.20;;;1.70;99.90;;;;;;5031943;28;20974;-66
2020/12/03 06:06:32;;;;;;;22.97;16.00;;;1.80;99.90;;;;;;5031685;28;20437;-66
2020/12/03 06:09:03;;;;;;;23.43;16.70;;;1.80;99.90;;;;;;5032024;28;20957;-66
2020/12/03 06:11:40;;;;;;;24.83;17.00;;;1.80;99.90;;;;;;4987647;28;21065;-66
2020/12/03 06:14:08;;;;;;;22.97;15.93;;;1.80;99.90;;;;;;5012031;28;20479;-66
2020/12/03 06:17:01;;;;;;;20.23;16.03;;;1.80;99.90;;;;;;5012268;28;20444;-66
2020/12/03 06:19:48;;;;;;;21.97;14.60;;;1.80;99.90;;;;;;5011965;28;20918;-66
2020/12/03 06:22:13;;;;;;;22.00;15.60;;;1.90;99.90;;;;;;5026384;28;20455;-66
2020/12/03 06:24:46;;;;;;;23.53;17.60;;;1.90;99.90;;;;;;5032083;28;21072;-66
2020/12/03 06:27:34;;;;;;;19.70;14.73;;;1.90;99.90;;;;;;5032083;28;20228;-66
2020/12/03 06:30:29;;;;;;;23.47;15.47;;;1.90;99.90;;;;;;5031697;28;20429;-66
2020/12/03 06:33:16;;;;;;;22.10;15.97;;;1.90;99.90;;;;;;5031788;28;20433;-67
2020/12/03 06:35:44;;;;;;;23.23;16.43;;;1.90;99.90;;;;;;5031842;28;20439;-66
2020/12/03 06:38:37;;;;;;;21.47;16.27;;;2.00;99.90;;;;;;5038953;28;20441;-66
2020/12/03 06:41:25;;;;;;;20.73;14.30;;;1.90;99.90;;;;;;5031586;28;20476;-66
2020/12/03 06:43:56;;;;;;;22.07;15.30;;;2.00;99.90;;;;;;5032661;28;20533;-66
2020/12/03 06:46:41;;;;;;;26.67;16.57;;;2.00;99.90;;;;;;5032357;28;20509;-66
2020/12/03 06:49:25;;;;;;;21.60;15.37;;;2.00;99.90;;;;;;5032027;28;20471;-66
2020/12/03 06:51:57;;;;;;;20.57;14.37;;;2.00;99.90;;;;;;5030717;28;20977;-66
2020/12/03 06:54:46;;;;;;;21.00;16.23;;;2.10;99.90;;;;;;5030058;28;20802;-67
2020/12/03 06:57:39;;;;;;;24.90;16.37;;;2.10;99.90;;;;;;5030178;28;20456;-66
2020/12/03 07:00:20;;;;;;;23.23;15.63;;;2.10;99.90;;;;;;5030704;28;20844;-66
2020/12/03 07:03:07;;;;;;;19.37;15.93;;;2.10;99.90;;;;;;5032651;28;20460;-66
2020/12/03 07:06:03;;;;;;;24.37;17.90;;;2.10;99.90;;;;;;5033188;28;20437;-66
2020/12/03 07:08:57;;;;;;;22.00;15.63;;;2.10;99.90;;;;;;5027384;28;20934;-66
2020/12/03 07:11:31;;;;;;;20.70;14.53;;;2.10;99.90;;;;;;5026921;28;20472;-66
2020/12/03 07:14:15;;;;;;;24.47;15.80;;;2.10;99.90;;;;;;5030364;28;20432;-66
2020/12/03 07:17:02;;;;;;;20.93;14.90;;;2.20;99.90;;;;;;5030188;28;20463;-68
2020/12/03 07:20:01;;;;;;;25.57;18.17;;;2.20;99.90;;;;;;5024880;28;20478;-68
2020/12/03 07:22:50;;;;;;;20.97;14.57;;;2.10;99.90;;;;;;5027367;28;21049;-68
2020/12/03 07:25:16;;;;;;;22.60;15.10;;;2.10;99.90;;;;;;5011567;28;20456;-68
2020/12/03 07:27:52;;;;;;;23.80;15.33;;;2.10;99.90;;;;;;5006939;28;20531;-68
2020/12/03 07:30:46;;;;;;;22.60;15.67;;;2.00;99.90;;;;;;5008376;28;20530;-68
2020/12/03 07:33:20;;;;;;;20.87;13.97;;;2.00;99.90;;;;;;5024101;28;20466;-67
2020/12/03 07:36:23;;;;;;;19.07;13.87;;;2.10;99.90;;;;;;5028239;28;20441;-67
2020/12/03 07:39:14;;;;;;;19.00;14.10;;;2.20;99.90;;;;;;5024166;28;20456;-68
2020/12/03 07:41:50;;;;;;;17.70;12.50;;;2.20;99.90;;;;;;5018621;28;20480;-67
2020/12/03 07:44:22;;;;;;;17.20;12.57;;;2.20;99.90;;;;;;5032123;28;21017;-67
2020/12/03 07:46:50;;;;;;;16.20;12.30;;;2.10;99.90;;;;;;5027211;28;20440;-68
2020/12/03 07:49:49;;;;;;;18.07;13.30;;;2.20;99.90;;;;;;5027208;28;20504;-69
2020/12/03 07:52:30;;;;;;;19.03;12.87;;;2.20;99.90;;;;;;5004744;28;21004;-69
2020/12/03 07:55:22;;;;;;;16.83;12.70;;;2.30;99.90;;;;;;5024637;28;20444;-69
2020/12/03 07:57:52;;;;;;;16.40;12.00;;;2.30;99.90;;;;;;5008012;28;20480;-69
2020/12/03 08:00:26;;;;;;;14.40;11.17;;;2.30;99.90;;;;;;5025659;28;20447;-69
2020/12/03 08:02:57;;;;;;;13.87;10.80;;;2.40;99.90;;;;;;5026795;28;20475;-68
2020/12/03 08:05:51;;;;;;;10.37;9.27;;;2.50;99.90;;;;;;5025649;28;20890;-68
2020/12/03 08:08:22;;;;;;;12.90;9.17;;;2.50;99.90;;;;;;5015944;28;20425;-68
2020/12/03 08:10:49;;;;;;;14.10;10.80;;;2.50;99.90;;;;;;5027229;28;20452;-69
2020/12/03 08:13:28;;;;;;;11.93;9.77;;;2.60;99.90;;;;;;5020597;28;20432;-68
2020/12/03 08:16:09;;;;;;;12.53;10.47;;;2.60;99.90;;;;;;5021268;28;20436;-69
2020/12/03 08:19:01;;;;;;;11.43;9.10;;;2.60;99.90;;;;;;5025470;28;20962;-68
2020/12/03 08:21:39;;;;;;;16.80;10.27;;;2.40;99.90;;;;;;5026217;28;20460;-68
2020/12/03 08:24:06;;;;;;;10.50;8.90;;;2.20;99.90;;;;;;5020531;28;20598;-68
2020/12/03 08:26:32;;;;;;;15.40;9.23;;;2.20;99.90;;;;;;5025898;28;20441;-68
2020/12/03 08:28:58;;;;;;;13.10;9.70;;;2.20;99.90;;;;;;5026522;28;20535;-69
2020/12/03 08:31:24;;;;;;;13.13;9.57;;;2.20;99.90;;;;;;5026154;28;20448;-69
2020/12/03 08:33:53;;;;;;;13.97;11.97;;;2.10;99.90;;;;;;5026059;28;20212;-68
2020/12/03 08:36:19;;;;;;;15.40;11.30;;;2.10;99.90;;;;;;5027309;28;20934;-68
2020/12/03 08:38:51;;;;;;;15.97;11.20;;;2.10;99.90;;;;;;5025561;28;20996;-68
2020/12/03 08:41:18;;;;;;;14.93;11.50;;;2.10;99.90;;;;;;5015130;28;20464;-68
2020/12/03 08:43:51;;;;;;;19.07;12.00;;;2.10;99.90;;;;;;5026175;28;20863;-68
2020/12/03 08:46:24;;;;;;;17.10;11.80;;;2.00;99.90;;;;;;5023059;28;20432;-69
2020/12/03 08:48:50;;;;;;;16.77;12.50;;;2.00;99.90;;;;;;5009232;28;20500;-68
2020/12/03 08:51:17;;;;;;;16.47;12.33;;;2.00;99.90;;;;;;5015613;28;20456;-68
2020/12/03 08:53:45;;;;;;;15.17;11.30;;;2.10;99.90;;;;;;5021429;28;20688;-68
2020/12/03 08:56:19;;;;;;;15.40;10.80;;;2.10;99.90;;;;;;5031260;28;20441;-69
2020/12/03 08:59:08;;;;;;;18.63;11.43;;;2.20;99.90;;;;;;5021697;28;20436;-69
2020/12/03 09:01:41;;;;;;;16.77;12.43;;;2.20;99.90;;;;;;5026261;28;20452;-69
2020/12/03 09:04:08;;;;;;;18.07;12.53;;;2.20;99.90;;;;;;5016959;28;20471;-68
2020/12/03 09:06:45;;;;;;;23.53;14.10;;;2.30;99.90;;;;;;5014225;28;20492;-68
2020/12/03 09:09:11;;;;;;;21.17;14.37;;;2.30;99.90;;;;;;5011396;28;20468;-68
2020/12/03 09:11:37;;;;;;;20.13;14.27;;;2.30;99.90;;;;;;5026708;28;20464;-69
2020/12/03 09:14:04;;;;;;;18.40;13.60;;;2.30;99.90;;;;;;5025793;28;20468;-69
2020/12/03 09:16:33;;;;;;;19.07;14.00;;;2.30;99.90;;;;;;5025277;28;20182;-69
2020/12/03 09:18:59;;;;;;;18.00;14.00;;;2.30;99.90;;;;;;5024618;28;20441;-69
2020/12/03 09:21:26;;;;;;;17.20;12.83;;;2.30;99.90;;;;;;5025486;28;20506;-69
2020/12/03 09:23:54;;;;;;;16.03;12.80;;;2.30;99.90;;;;;;5028790;28;20201;-68
2020/12/03 09:26:34;;;;;;;19.40;14.53;;;2.20;99.90;;;;;;5020601;28;20543;-69
2020/12/03 09:29:02;;;;;;;32.80;14.77;;;2.30;99.90;;;;;;5028845;28;20436;-69
2020/12/03 09:31:32;;;;;;;16.37;12.40;;;2.40;99.90;;;;;;5017491;28;20452;-68
2020/12/03 09:33:58;;;;;;;20.10;14.70;;;2.50;99.90;;;;;;5029131;28;20448;-69
2020/12/03 09:36:24;;;;;;;20.97;14.30;;;2.60;99.90;;;;;;5019931;28;20809;-69
2020/12/03 09:38:51;;;;;;;18.83;14.13;;;2.70;99.90;;;;;;5027448;28;20469;-69
2020/12/03 09:41:22;;;;;;;19.83;12.90;;;2.70;99.90;;;;;;5016286;28;20561;-69
2020/12/03 09:43:53;;;;;;;23.40;13.50;;;2.80;99.90;;;;;;5028657;28;20875;-69
2020/12/03 09:46:24;;;;;;;17.50;12.80;;;2.90;99.90;;;;;;5029455;28;20786;-68
2020/12/03 09:48:54;;;;;;;17.57;13.43;;;2.90;99.90;;;;;;5027815;28;20789;-68
2020/12/03 09:51:21;;;;;;;16.27;12.53;;;2.90;99.90;;;;;;5028979;28;20464;-68
2020/12/03 09:53:49;;;;;;;16.80;12.77;;;2.90;99.90;;;;;;5028025;28;20514;-69
2020/12/03 09:56:14;;;;;;;15.97;12.60;;;3.00;99.90;;;;;;5021533;28;20451;-74
2020/12/03 09:58:40;;;;;;;23.30;12.93;;;2.90;99.90;;;;;;5021913;28;20433;-68
2020/12/03 10:01:07;;;;;;;14.30;11.97;;;2.80;99.90;;;;;;5027826;28;20250;-68
2020/12/03 10:04:13;;;;;;;17.97;11.80;;;2.80;99.90;;;;;;5015474;28;20206;-68
2020/12/03 10:06:52;;;;;;;17.67;12.70;;;2.70;99.90;;;;;;5026377;28;20804;-68
2020/12/03 10:09:21;;;;;;;15.07;13.00;;;2.80;99.90;;;;;;5028208;28;20520;-68
2020/12/03 10:12:25;;;;;;;15.53;12.30;;;2.90;99.90;;;;;;5028025;28;20949;-68
2020/12/03 10:15:11;;;;;;;15.87;12.13;;;3.10;99.90;;;;;;5015857;28;20437;-68
2020/12/03 10:17:49;;;;;;;16.87;12.67;;;3.20;99.90;;;;;;5028813;28;20491;-68
2020/12/03 10:20:15;;;;;;;15.33;11.80;;;3.20;99.90;;;;;;5028173;28;20479;-68
2020/12/03 10:22:51;;;;;;;15.63;10.33;;;3.30;99.90;;;;;;5024064;28;21001;-68
2020/12/03 10:25:20;;;;;;;13.70;10.80;;;3.10;99.90;;;;;;5027113;28;20494;-68
2020/12/03 10:28:01;;;;;;;14.40;11.77;;;3.10;99.90;;;;;;5026947;28;20811;-68
2020/12/03 10:30:37;;;;;;;12.47;10.33;;;3.10;99.90;;;;;;5027593;28;20437;-68
2020/12/03 10:33:07;;;;;;;14.00;11.10;;;3.30;99.90;;;;;;5028301;28;20928;-68
2020/12/03 10:35:34;;;;;;;14.67;10.57;;;3.30;99.90;;;;;;5028504;28;20460;-68
2020/12/03 10:38:03;;;;;;;13.10;10.43;;;3.30;99.90;;;;;;5027435;28;20432;-68
2020/12/03 10:40:29;;;;;;;14.30;11.10;;;3.40;99.90;;;;;;5027999;28;20484;-68
2020/12/03 10:43:13;;;;;;;21.33;11.37;;;3.30;99.90;;;;;;5022670;28;20474;-68
2020/12/03 10:45:44;;;;;;;11.13;9.90;;;3.50;99.90;;;;;;5020829;28;20436;-68
2020/12/03 10:48:18;;;;;;;12.27;8.93;;;3.50;99.90;;;;;;5025833;28;20434;-68
2020/12/03 10:50:47;;;;;;;13.53;10.40;;;3.50;99.90;;;;;;5016193;28;21100;-68
2020/12/03 10:53:16;;;;;;;11.77;10.50;;;3.50;99.90;;;;;;5029710;28;20440;-68
2020/12/03 10:55:43;;;;;;;13.63;11.30;;;3.40;99.90;;;;;;5043051;28;20469;-68
2020/12/03 10:58:13;;;;;;;10.40;9.20;;;3.50;99.90;;;;;;5027274;28;20746;-68
2020/12/03 11:00:42;;;;;;;11.67;9.47;;;3.40;99.90;;;;;;5019216;28;20479;-68
2020/12/03 11:03:13;;;;;;;13.47;9.93;;;3.20;99.90;;;;;;5027872;28;20465;-68
2020/12/03 11:05:45;;;;;;;13.50;9.73;;;3.20;99.90;;;;;;5028684;28;20429;-68
2020/12/03 11:08:11;;;;;;;13.13;9.27;;;3.20;99.90;;;;;;5027270;28;20433;-68
2020/12/03 11:10:40;;;;;;;14.00;10.33;;;3.10;99.90;;;;;;5027715;28;20460;-68
2020/12/03 11:13:07;;;;;;;10.60;9.47;;;3.10;99.90;;;;;;5028329;28;21242;-67
2020/12/03 11:15:33;;;;;;;15.47;10.37;;;3.10;99.90;;;;;;5017530;28;20577;-68
2020/12/03 11:18:03;;;;;;;13.07;9.23;;;3.20;99.90;;;;;;5021376;28;20515;-68
2020/12/03 11:20:35;;;;;;;12.53;9.60;;;3.20;99.90;;;;;;5027072;28;20174;-68
2020/12/03 11:23:08;;;;;;;10.20;8.20;;;3.10;99.90;;;;;;5026647;28;20464;-67
2020/12/03 11:25:34;;;;;;;12.03;9.50;;;3.20;99.90;;;;;;5027711;28;20433;-68
2020/12/03 11:28:18;;;;;;;10.90;8.70;;;3.20;99.90;;;;;;5027262;28;20846;-68
2020/12/03 11:31:01;;;;;;;11.33;8.83;;;3.30;99.90;;;;;;5027743;28;20461;-68
2020/12/03 11:33:27;;;;;;;12.93;9.03;;;3.30;99.90;;;;;;5033769;28;20444;-67
2020/12/03 11:36:30;;;;;;;11.40;8.70;;;3.40;99.90;;;;;;5034486;28;20444;-67
2020/12/03 11:38:57;;;;;;;10.40;7.57;;;3.40;99.90;;;;;;5023072;28;20855;-67
2020/12/03 11:41:30;;;;;;;15.53;7.93;;;3.50;99.90;;;;;;5026720;28;20472;-67
2020/12/03 11:47:22;;;;;;;10.13;7.80;;;3.50;99.90;;;;;;5007860;28;20448;-68
2020/12/03 11:49:39;;;;;;;10.67;8.20;;;3.70;99.90;;;;;;5026266;28;20486;-68
2020/12/03 11:52:16;;;;;;;11.57;8.53;;;3.70;99.90;;;;;;5026867;28;20858;-68
2020/12/03 11:54:43;;;;;;;14.70;9.23;;;3.70;99.90;;;;;;5027075;28;20182;-68
2020/12/03 11:57:10;;;;;;;10.20;7.90;;;3.60;99.90;;;;;;5026766;28;20506;-68
2020/12/03 11:59:36;;;;;;;10.90;8.10;;;3.50;99.90;;;;;;5026741;28;20429;-68
2020/12/03 12:02:04;;;;;;;8.70;6.70;;;3.50;99.90;;;;;;5027384;28;20988;-68
2020/12/03 12:07:11;;;;;;;9.87;8.23;;;3.40;99.90;;;;;;5027450;28;20844;-68
2020/12/03 12:12:02;;;;;;;8.60;7.50;;;3.30;99.90;;;;;;5027064;28;20503;-68
2020/12/03 12:14:28;;;;;;;10.37;8.20;;;3.40;99.90;;;;;;5019866;28;20178;-68
2020/12/03 12:16:54;;;;;;;13.43;7.90;;;3.50;99.90;;;;;;5022707;28;20608;-67
2020/12/03 12:19:20;;;;;;;14.03;7.60;;;3.50;99.90;;;;;;5019817;28;20727;-68
2020/12/03 12:21:46;;;;;;;12.70;7.13;;;3.50;99.90;;;;;;5021282;28;20449;-67
2020/12/03 12:24:11;;;;;;;13.03;8.37;;;3.40;99.90;;;;;;5022817;28;20907;-68
2020/12/03 12:26:37;;;;;;;11.57;7.90;;;3.40;99.90;;;;;;5026594;28;20440;-67
2020/12/03 12:29:05;;;;;;;9.90;7.37;;;3.50;99.90;;;;;;5023152;28;20185;-67
2020/12/03 12:31:32;;;;;;;11.83;9.27;;;3.50;99.90;;;;;;5021954;28;20293;-68
2020/12/03 12:33:58;;;;;;;11.73;8.20;;;3.50;99.90;;;;;;5018885;28;20451;-68
2020/12/03 12:36:23;;;;;;;12.17;8.30;;;3.50;99.90;;;;;;5026056;28;20503;-68
2020/12/03 12:38:49;;;;;;;18.60;9.10;;;3.60;99.90;;;;;;5026303;28;20440;-69
2020/12/03 12:41:14;;;;;;;15.23;8.83;;;3.60;99.90;;;;;;5026586;28;20210;-68
2020/12/03 12:43:40;;;;;;;11.63;8.67;;;3.60;99.90;;;;;;5024439;28;20210;-68
2020/12/03 12:46:06;;;;;;;10.80;7.90;;;3.50;99.90;;;;;;5026627;28;20538;-68
2020/12/03 12:48:31;;;;;;;14.33;9.40;;;3.40;99.90;;;;;;5021403;28;20178;-67
2020/12/03 12:50:57;;;;;;;8.73;7.30;;;3.40;99.90;;;;;;5016501;28;20242;-68
2020/12/03 12:53:22;;;;;;;10.13;8.17;;;3.40;99.90;;;;;;5020470;28;20194;-68
2020/12/03 12:55:48;;;;;;;11.97;8.43;;;3.50;99.90;;;;;;5024254;28;20182;-68
2020/12/03 12:58:13;;;;;;;11.20;8.50;;;3.50;99.90;;;;;;5029220;28;20179;-68
2020/12/03 13:00:39;;;;;;;11.23;8.07;;;3.40;99.90;;;;;;5027384;28;20289;-68
2020/12/03 13:03:05;;;;;;;12.73;8.70;;;3.40;99.90;;;;;;5023912;28;20309;-67
2020/12/03 13:05:31;;;;;;;12.40;8.77;;;3.40;99.90;;;;;;5022876;28;20174;-67
2020/12/03 13:07:57;;;;;;;14.23;9.40;;;3.50;99.90;;;;;;5029276;28;21038;-68